createdAt,value
2018-02-12T00:00:28.861Z,51.41
2018-02-12T00:01:31.321Z,51.70
2018-02-12T00:02:33.787Z,51.59
2018-02-12T00:03:36.250Z,51.79
2018-02-12T00:04:38.722Z,51.81
2018-02-12T00:05:41.202Z,51.94
2018-02-12T00:06:43.696Z,52.08
2018-02-12T00:07:46.186Z,52.02
2018-02-12T00:08:48.654Z,51.90
2018-02-12T00:09:51.120Z,51.85
2018-02-12T00:10:53.578Z,51.89
2018-02-12T00:11:56.046Z,51.90
2018-02-12T00:12:58.514Z,51.78
2018-02-12T00:14:00.983Z,51.90
2018-02-12T00:15:03.462Z,52.00
2018-02-12T00:16:05.941Z,52.46
2018-02-12T00:17:08.429Z,52.45
2018-02-12T00:18:10.916Z,52.36
2018-02-12T00:19:13.400Z,52.24
2018-02-12T00:20:15.871Z,52.18
2018-02-12T00:21:18.436Z,51.96
2018-02-12T00:22:20.911Z,51.82
2018-02-12T00:23:23.395Z,51.74
2018-02-12T00:24:25.881Z,51.67
2018-02-12T00:25:28.355Z,51.58
2018-02-12T00:26:30.836Z,51.49
2018-02-12T00:27:33.315Z,51.47
2018-02-12T00:28:35.806Z,51.53
2018-02-12T00:29:38.404Z,51.49
2018-02-12T00:30:40.885Z,51.50
2018-02-12T00:31:43.365Z,51.51
2018-02-12T00:32:45.841Z,51.45
2018-02-12T00:33:48.321Z,51.54
2018-02-12T00:34:50.825Z,51.46
2018-02-12T00:35:53.291Z,51.55
2018-02-12T00:36:55.768Z,51.56
2018-02-12T00:37:58.249Z,51.57
2018-02-12T00:39:00.714Z,51.60
2018-02-12T00:40:03.216Z,51.70
2018-02-12T00:41:05.692Z,51.72
2018-02-12T00:42:08.204Z,51.87
2018-02-12T00:43:10.685Z,51.95
2018-02-12T00:44:13.158Z,51.97
2018-02-12T00:45:15.665Z,51.85
2018-02-12T00:46:18.136Z,51.89
2018-02-12T00:47:20.621Z,51.90
2018-02-12T00:48:23.249Z,51.99
2018-02-12T00:49:25.734Z,51.97
2018-02-12T00:50:28.222Z,51.92
2018-02-12T00:51:30.701Z,52.15
2018-02-12T00:52:33.170Z,52.31
2018-02-12T00:53:35.638Z,52.78
2018-02-12T00:54:38.119Z,52.91
2018-02-12T00:55:40.626Z,52.81
2018-02-12T00:56:43.113Z,52.69
2018-02-12T00:57:45.601Z,52.67
2018-02-12T00:58:48.070Z,52.57
2018-02-12T00:59:50.548Z,52.40
2018-02-12T01:00:53.034Z,52.44
2018-02-12T01:01:55.518Z,52.20
2018-02-12T01:02:58.008Z,52.12
2018-02-12T01:04:00.478Z,52.15
2018-02-12T01:05:02.967Z,52.11
2018-02-12T01:06:05.455Z,52.01
2018-02-12T01:07:07.944Z,52.11
2018-02-12T01:08:10.424Z,52.06
2018-02-12T01:09:12.908Z,52.09
2018-02-12T01:10:15.385Z,52.08
2018-02-12T01:11:17.885Z,52.05
2018-02-12T01:12:20.364Z,52.12
2018-02-12T01:13:22.849Z,52.14
2018-02-12T01:14:25.329Z,52.24
2018-02-12T01:15:27.817Z,52.37
2018-02-12T01:16:30.312Z,52.39
2018-02-12T01:17:32.783Z,52.40
2018-02-12T01:18:35.250Z,52.43
2018-02-12T01:19:37.728Z,52.52
2018-02-12T01:20:40.212Z,52.58
2018-02-12T01:21:42.701Z,52.60
2018-02-12T01:22:45.186Z,52.60
2018-02-12T01:23:47.652Z,52.79
2018-02-12T01:24:50.118Z,52.84
2018-02-12T01:25:52.582Z,52.74
2018-02-12T01:26:55.067Z,53.08
2018-02-12T01:27:57.547Z,52.85
2018-02-12T01:29:00.016Z,53.16
2018-02-12T01:30:02.500Z,53.01
2018-02-12T01:31:04.979Z,52.84
2018-02-12T01:32:07.468Z,52.96
2018-02-12T01:33:09.949Z,53.27
2018-02-12T01:34:12.414Z,53.32
2018-02-12T01:35:14.896Z,53.33
2018-02-12T01:36:17.372Z,53.26
2018-02-12T01:37:19.872Z,53.11
2018-02-12T01:38:22.352Z,53.04
2018-02-12T01:39:24.914Z,53.32
2018-02-12T01:40:27.383Z,52.64
2018-02-12T01:41:29.869Z,52.73
2018-02-12T01:42:32.372Z,52.47
2018-02-12T01:43:34.838Z,52.50
2018-02-12T01:44:37.303Z,52.37
2018-02-12T01:45:39.788Z,52.58
2018-02-12T01:46:42.250Z,52.40
2018-02-12T01:47:44.753Z,52.44
2018-02-12T01:48:47.228Z,52.45
2018-02-12T01:50:01.550Z,52.53
2018-02-12T01:51:04.022Z,52.55
2018-02-12T01:52:06.502Z,52.66
2018-02-12T01:53:09.007Z,52.70
2018-02-12T01:54:11.470Z,52.76
2018-02-12T01:55:13.936Z,52.79
2018-02-12T01:56:16.402Z,52.83
2018-02-12T01:57:18.871Z,52.96
2018-02-12T01:58:21.376Z,53.00
2018-02-12T01:59:23.860Z,52.96
2018-02-12T02:00:26.323Z,52.99
2018-02-12T02:01:28.821Z,53.03
2018-02-12T02:02:31.307Z,53.17
2018-02-12T02:03:33.813Z,53.21
2018-02-12T02:04:36.313Z,53.24
2018-02-12T02:05:38.809Z,53.34
2018-02-12T02:06:41.297Z,53.26
2018-02-12T02:07:43.789Z,53.38
2018-02-12T02:08:46.270Z,53.37
2018-02-12T02:09:48.739Z,53.43
2018-02-12T02:10:51.229Z,53.73
2018-02-12T02:11:53.695Z,53.49
2018-02-12T02:12:56.180Z,53.36
2018-02-12T02:13:58.674Z,53.27
2018-02-12T02:15:01.157Z,53.22
2018-02-12T02:16:03.650Z,53.54
2018-02-12T02:17:06.119Z,53.71
2018-02-12T02:18:08.594Z,53.63
2018-02-12T02:19:11.082Z,53.54
2018-02-12T02:20:13.552Z,53.53
2018-02-12T02:21:16.037Z,53.39
2018-02-12T02:22:18.506Z,53.31
2018-02-12T02:23:20.975Z,53.21
2018-02-12T02:24:23.488Z,53.26
2018-02-12T02:25:25.964Z,53.24
2018-02-12T02:26:28.444Z,53.11
2018-02-12T02:27:30.924Z,53.13
2018-02-12T02:28:33.388Z,53.18
2018-02-12T02:29:35.912Z,53.09
2018-02-12T02:30:38.381Z,53.10
2018-02-12T02:31:40.869Z,53.12
2018-02-12T02:32:43.353Z,53.04
2018-02-12T02:33:45.822Z,53.15
2018-02-12T02:34:48.307Z,53.14
2018-02-12T02:35:50.800Z,53.16
2018-02-12T02:36:53.297Z,53.21
2018-02-12T02:37:55.785Z,53.25
2018-02-12T02:38:58.269Z,53.28
2018-02-12T02:40:00.773Z,53.33
2018-02-12T02:41:03.238Z,53.42
2018-02-12T02:42:05.702Z,53.40
2018-02-12T02:43:08.181Z,53.47
2018-02-12T02:44:10.651Z,53.63
2018-02-12T02:45:13.162Z,53.52
2018-02-12T02:46:15.626Z,53.53
2018-02-12T02:47:18.115Z,53.64
2018-02-12T02:48:20.604Z,53.93
2018-02-12T02:49:23.074Z,54.17
2018-02-12T02:50:25.570Z,54.49
2018-02-12T02:51:28.057Z,54.06
2018-02-12T02:52:30.526Z,54.11
2018-02-12T02:53:32.995Z,54.18
2018-02-12T02:54:35.463Z,54.14
2018-02-12T02:55:37.950Z,54.47
2018-02-12T02:56:40.421Z,54.57
2018-02-12T02:57:42.890Z,54.41
2018-02-12T02:58:45.353Z,54.18
2018-02-12T02:59:47.849Z,54.20
2018-02-12T03:00:50.357Z,54.17
2018-02-12T03:01:52.818Z,54.00
2018-02-12T03:02:55.302Z,53.84
2018-02-12T03:03:57.766Z,53.79
2018-02-12T03:05:00.232Z,53.82
2018-02-12T03:06:02.736Z,53.67
2018-02-12T03:07:05.216Z,53.72
2018-02-12T03:08:07.679Z,53.56
2018-02-12T03:09:10.165Z,53.44
2018-02-12T03:10:12.648Z,53.75
2018-02-12T03:11:15.157Z,53.46
2018-02-12T03:12:17.627Z,53.56
2018-02-12T03:13:20.094Z,53.66
2018-02-12T03:14:22.576Z,53.78
2018-02-12T03:15:25.066Z,53.92
2018-02-12T03:16:27.573Z,53.85
2018-02-12T03:17:30.058Z,53.82
2018-02-12T03:18:32.537Z,53.87
2018-02-12T03:19:35.002Z,53.93
2018-02-12T03:20:37.480Z,54.01
2018-02-12T03:21:39.997Z,54.17
2018-02-12T03:22:42.486Z,54.22
2018-02-12T03:23:44.951Z,54.24
2018-02-12T03:24:47.420Z,54.24
2018-02-12T03:25:49.887Z,54.25
2018-02-12T03:26:52.378Z,54.31
2018-02-12T03:27:54.866Z,54.29
2018-02-12T03:28:57.335Z,54.43
2018-02-12T03:29:59.817Z,54.43
2018-02-12T03:31:02.320Z,54.50
2018-02-12T03:32:04.818Z,54.72
2018-02-12T03:33:07.288Z,54.59
2018-02-12T03:34:09.792Z,54.66
2018-02-12T03:35:12.277Z,54.69
2018-02-12T03:36:14.752Z,54.49
2018-02-12T03:37:17.240Z,55.03
2018-02-12T03:38:19.728Z,54.45
2018-02-12T03:39:22.209Z,54.33
2018-02-12T03:40:24.688Z,54.59
2018-02-12T03:41:27.170Z,54.94
2018-02-12T03:42:29.783Z,54.75
2018-02-12T03:43:32.330Z,54.78
2018-02-12T03:44:34.812Z,54.75
2018-02-12T03:45:56.068Z,54.72
2018-02-12T03:46:58.546Z,54.57
2018-02-12T03:48:01.025Z,54.53
2018-02-12T03:49:03.490Z,54.41
2018-02-12T03:50:05.954Z,54.46
2018-02-12T03:51:08.437Z,54.40
2018-02-12T03:52:10.916Z,54.45
2018-02-12T03:53:13.383Z,54.50
2018-02-12T03:54:15.852Z,54.47
2018-02-12T03:55:18.334Z,54.38
2018-02-12T03:56:20.798Z,54.42
2018-02-12T03:57:23.271Z,54.48
2018-02-12T03:58:25.734Z,54.58
2018-02-12T03:59:28.212Z,54.63
2018-02-12T04:00:30.693Z,54.56
2018-02-12T04:01:33.158Z,54.50
2018-02-12T04:02:35.637Z,54.58
2018-02-12T04:03:38.102Z,54.58
2018-02-12T04:04:40.575Z,54.66
2018-02-12T04:05:43.057Z,54.65
2018-02-12T04:06:45.538Z,54.68
2018-02-12T04:07:48.021Z,54.84
2018-02-12T04:08:50.500Z,54.74
2018-02-12T04:09:52.981Z,54.65
2018-02-12T04:10:55.469Z,54.61
2018-02-12T04:11:57.947Z,54.71
2018-02-12T04:13:00.418Z,54.64
2018-02-12T04:14:02.901Z,54.41
2018-02-12T04:15:05.384Z,54.24
2018-02-12T04:16:07.851Z,54.37
2018-02-12T04:17:10.337Z,54.13
2018-02-12T04:18:12.812Z,54.24
2018-02-12T04:19:15.291Z,54.06
2018-02-12T04:20:17.771Z,54.03
2018-02-12T04:21:20.250Z,54.07
2018-02-12T04:22:22.773Z,54.12
2018-02-12T04:23:25.257Z,54.16
2018-02-12T04:24:27.745Z,54.27
2018-02-12T04:25:30.224Z,54.44
2018-02-12T04:26:32.712Z,54.36
2018-02-12T04:27:35.193Z,54.40
2018-02-12T04:28:37.673Z,54.42
2018-02-12T04:29:40.135Z,54.68
2018-02-12T04:30:42.610Z,54.65
2018-02-12T04:31:45.096Z,54.67
2018-02-12T04:32:47.558Z,54.69
2018-02-12T04:33:50.044Z,54.94
2018-02-12T04:34:52.528Z,55.00
2018-02-12T04:35:55.017Z,55.01
2018-02-12T04:36:57.505Z,55.07
2018-02-12T04:38:00.008Z,55.23
2018-02-12T04:39:02.534Z,55.14
2018-02-12T04:40:05.002Z,55.28
2018-02-12T04:41:07.485Z,55.41
2018-02-12T04:42:09.969Z,55.57
2018-02-12T04:43:12.452Z,55.54
2018-02-12T04:44:14.926Z,55.40
2018-02-12T04:45:17.417Z,55.59
2018-02-12T04:46:19.911Z,55.55
2018-02-12T04:47:23.089Z,55.39
2018-02-12T04:48:25.573Z,55.64
2018-02-12T04:49:28.056Z,55.51
2018-02-12T04:50:30.529Z,55.44
2018-02-12T04:51:33.016Z,55.30
2018-02-12T04:52:35.489Z,55.17
2018-02-12T04:53:37.976Z,55.05
2018-02-12T04:54:40.446Z,54.83
2018-02-12T04:55:42.955Z,54.72
2018-02-12T04:56:45.422Z,54.79
2018-02-12T04:57:47.895Z,54.69
2018-02-12T04:58:50.388Z,54.73
2018-02-12T04:59:52.874Z,54.60
2018-02-12T05:00:55.347Z,54.50
2018-02-12T05:01:57.818Z,54.52
2018-02-12T05:03:00.274Z,54.53
2018-02-12T05:04:02.807Z,54.50
2018-02-12T05:05:05.299Z,54.60
2018-02-12T05:06:07.773Z,54.59
2018-02-12T05:07:10.261Z,54.62
2018-02-12T05:08:12.730Z,54.66
2018-02-12T05:09:15.218Z,54.70
2018-02-12T05:10:17.699Z,54.78
2018-02-12T05:11:20.180Z,54.81
2018-02-12T05:12:22.675Z,54.90
2018-02-12T05:13:25.177Z,55.06
2018-02-12T05:14:27.642Z,55.04
2018-02-12T05:15:30.136Z,55.34
2018-02-12T05:16:32.602Z,55.17
2018-02-12T05:17:35.088Z,55.22
2018-02-12T05:18:37.568Z,55.34
2018-02-12T05:19:40.058Z,55.50
2018-02-12T05:20:42.538Z,55.94
2018-02-12T05:21:45.029Z,55.76
2018-02-12T05:22:47.505Z,55.59
2018-02-12T05:23:49.988Z,55.60
2018-02-12T05:24:52.454Z,55.80
2018-02-12T05:25:55.043Z,55.38
2018-02-12T05:26:57.532Z,55.29
2018-02-12T05:28:00.031Z,55.50
2018-02-12T05:29:02.517Z,55.88
2018-02-12T05:30:05.017Z,55.87
2018-02-12T05:31:07.504Z,55.82
2018-02-12T05:32:09.997Z,55.88
2018-02-12T05:33:12.488Z,55.64
2018-02-12T05:34:14.957Z,55.52
2018-02-12T05:35:17.440Z,55.35
2018-02-12T05:36:19.964Z,55.26
2018-02-12T05:37:22.444Z,55.25
2018-02-12T05:38:25.004Z,55.11
2018-02-12T05:39:27.496Z,55.19
2018-02-12T05:40:29.972Z,55.12
2018-02-12T05:41:32.456Z,55.14
2018-02-12T05:42:34.945Z,55.19
2018-02-12T05:43:37.424Z,55.13
2018-02-12T05:44:39.902Z,55.29
2018-02-12T05:45:42.386Z,55.19
2018-02-12T05:46:44.859Z,55.15
2018-02-12T05:47:47.329Z,55.22
2018-02-12T05:48:49.821Z,55.48
2018-02-12T05:49:52.344Z,55.51
2018-02-12T05:50:54.859Z,55.35
2018-02-12T05:51:57.335Z,55.33
2018-02-12T05:52:59.837Z,55.45
2018-02-12T05:54:02.306Z,55.51
2018-02-12T05:55:04.770Z,55.54
2018-02-12T05:56:07.244Z,55.65
2018-02-12T05:57:09.718Z,55.65
2018-02-12T05:58:12.190Z,55.66
2018-02-12T05:59:14.674Z,55.79
2018-02-12T06:00:17.156Z,55.73
2018-02-12T06:01:19.644Z,55.74
2018-02-12T06:02:22.112Z,55.93
2018-02-12T06:03:24.585Z,56.02
2018-02-12T06:04:27.072Z,55.92
2018-02-12T06:05:29.573Z,55.70
2018-02-12T06:06:32.047Z,55.85
2018-02-12T06:07:34.519Z,56.00
2018-02-12T06:08:37.017Z,56.03
2018-02-12T06:09:39.501Z,56.20
2018-02-12T06:10:41.975Z,56.05
2018-02-12T06:11:44.460Z,55.91
2018-02-12T06:12:46.935Z,55.84
2018-02-12T06:13:49.407Z,55.66
2018-02-12T06:14:51.879Z,55.49
2018-02-12T06:15:54.361Z,55.28
2018-02-12T06:16:56.853Z,55.24
2018-02-12T06:17:59.337Z,55.09
2018-02-12T06:19:01.817Z,54.99
2018-02-12T06:20:04.295Z,54.95
2018-02-12T06:21:06.786Z,54.96
2018-02-12T06:22:09.260Z,54.90
2018-02-12T06:23:11.731Z,54.98
2018-02-12T06:24:14.217Z,55.02
2018-02-12T06:25:16.805Z,55.02
2018-02-12T06:26:19.312Z,55.08
2018-02-12T06:27:21.780Z,55.13
2018-02-12T06:28:24.760Z,55.18
2018-02-12T06:29:27.240Z,54.66
2018-02-12T06:30:29.731Z,51.36
2018-02-12T06:31:32.224Z,50.71
2018-02-12T06:32:34.696Z,49.67
2018-02-12T06:33:37.185Z,48.18
2018-02-12T06:34:39.665Z,47.75
2018-02-12T06:35:42.148Z,47.92
2018-02-12T06:36:44.626Z,47.75
2018-02-12T06:37:47.116Z,49.52
2018-02-12T06:38:49.602Z,47.74
2018-02-12T06:39:52.075Z,49.43
2018-02-12T06:40:54.550Z,50.49
2018-02-12T06:41:57.023Z,50.43
2018-02-12T06:42:59.517Z,50.72
2018-02-12T06:44:01.991Z,50.83
2018-02-12T06:45:04.490Z,50.93
2018-02-12T06:46:06.986Z,50.90
2018-02-12T06:47:09.461Z,50.79
2018-02-12T06:48:11.942Z,50.79
2018-02-12T06:49:14.426Z,50.82
2018-02-12T06:50:16.915Z,50.76
2018-02-12T06:51:19.413Z,50.93
2018-02-12T06:52:21.893Z,51.06
2018-02-12T06:53:24.381Z,51.14
2018-02-12T06:54:26.870Z,51.18
2018-02-12T06:55:29.357Z,51.32
2018-02-12T06:56:31.849Z,51.38
2018-02-12T06:57:34.344Z,51.48
2018-02-12T06:58:36.820Z,51.61
2018-02-12T06:59:39.317Z,51.76
2018-02-12T07:00:41.790Z,51.94
2018-02-12T07:01:44.287Z,52.04
2018-02-12T07:02:46.765Z,51.96
2018-02-12T07:03:49.249Z,51.87
2018-02-12T07:04:51.765Z,51.83
2018-02-12T07:05:54.248Z,51.60
2018-02-12T07:06:56.727Z,51.44
2018-02-12T07:07:59.203Z,51.50
2018-02-12T07:09:01.688Z,51.38
2018-02-12T07:10:04.162Z,51.12
2018-02-12T07:11:06.634Z,50.95
2018-02-12T07:12:09.133Z,50.93
2018-02-12T07:13:11.619Z,50.76
2018-02-12T07:14:14.090Z,50.72
2018-02-12T07:15:16.568Z,50.72
2018-02-12T07:16:19.071Z,50.68
2018-02-12T07:17:21.566Z,50.78
2018-02-12T07:18:24.048Z,50.71
2018-02-12T07:19:26.523Z,50.84
2018-02-12T07:20:29.025Z,50.89
2018-02-12T07:21:31.483Z,51.03
2018-02-12T07:22:33.965Z,51.15
2018-02-12T07:23:36.449Z,51.19
2018-02-12T07:24:38.911Z,51.17
2018-02-12T07:25:41.393Z,51.14
2018-02-12T07:26:43.858Z,51.10
2018-02-12T07:27:46.344Z,51.06
2018-02-12T07:28:48.806Z,50.80
2018-02-12T07:29:51.274Z,50.65
2018-02-12T07:30:53.743Z,50.37
2018-02-12T07:31:56.207Z,50.26
2018-02-12T07:32:58.689Z,50.14
2018-02-12T07:34:01.146Z,50.04
2018-02-12T07:35:03.614Z,49.99
2018-02-12T07:36:06.098Z,49.95
2018-02-12T07:37:08.604Z,50.03
2018-02-12T07:38:11.078Z,50.11
2018-02-12T07:39:13.561Z,50.18
2018-02-12T07:40:16.057Z,50.25
2018-02-12T07:41:18.588Z,50.30
2018-02-12T07:42:21.060Z,50.31
2018-02-12T07:43:23.531Z,50.46
2018-02-12T07:44:25.994Z,50.34
2018-02-12T07:45:28.477Z,50.34
2018-02-12T07:46:30.951Z,50.34
2018-02-12T07:47:33.429Z,50.41
2018-02-12T07:48:35.904Z,50.28
2018-02-12T07:49:38.376Z,50.26
2018-02-12T07:50:40.839Z,50.34
2018-02-12T07:51:43.303Z,50.55
2018-02-12T07:52:45.767Z,50.54
2018-02-12T07:53:48.252Z,50.66
2018-02-12T07:54:50.734Z,50.80
2018-02-12T07:55:53.194Z,50.95
2018-02-12T07:56:55.677Z,50.99
2018-02-12T07:57:58.156Z,51.31
2018-02-12T07:59:00.628Z,51.19
2018-02-12T08:00:03.117Z,50.99
2018-02-12T08:01:05.597Z,50.92
2018-02-12T08:02:08.059Z,50.76
2018-02-12T08:03:10.538Z,50.54
2018-02-12T08:04:13.028Z,50.36
2018-02-12T08:05:15.486Z,50.30
2018-02-12T08:06:17.960Z,50.16
2018-02-12T08:07:20.432Z,50.25
2018-02-12T08:08:22.895Z,50.21
2018-02-12T08:09:25.406Z,50.24
2018-02-12T08:10:27.870Z,50.35
2018-02-12T08:11:30.353Z,50.47
2018-02-12T08:12:32.830Z,50.67
2018-02-12T08:13:35.304Z,50.75
2018-02-12T08:14:37.785Z,50.79
2018-02-12T08:15:40.280Z,50.76
2018-02-12T08:16:42.742Z,50.79
2018-02-12T08:17:45.217Z,50.74
2018-02-12T08:18:47.730Z,50.64
2018-02-12T08:19:50.208Z,50.58
2018-02-12T08:20:52.671Z,50.63
2018-02-12T08:21:55.134Z,50.64
2018-02-12T08:22:57.608Z,50.64
2018-02-12T08:24:00.091Z,50.57
2018-02-12T08:25:02.572Z,50.62
2018-02-12T08:26:05.049Z,50.93
2018-02-12T08:27:07.525Z,50.92
2018-02-12T08:28:09.991Z,50.99
2018-02-12T08:29:12.456Z,51.04
2018-02-12T08:30:14.939Z,51.09
2018-02-12T08:31:17.408Z,51.04
2018-02-12T08:32:19.939Z,51.05
2018-02-12T08:33:22.432Z,50.88
2018-02-12T08:34:24.890Z,50.63
2018-02-12T08:35:27.384Z,50.42
2018-02-12T08:36:29.864Z,50.32
2018-02-12T08:37:32.333Z,50.22
2018-02-12T08:38:34.821Z,50.05
2018-02-12T08:39:37.287Z,49.99
2018-02-12T08:40:39.765Z,49.98
2018-02-12T08:41:42.250Z,50.07
2018-02-12T08:42:44.731Z,50.10
2018-02-12T08:43:47.208Z,50.08
2018-02-12T08:44:49.685Z,50.22
2018-02-12T08:45:52.138Z,50.42
2018-02-12T08:46:54.652Z,50.46
2018-02-12T08:48:58.968Z,50.47
2018-02-12T08:50:01.434Z,50.33
2018-02-12T08:51:03.899Z,50.27
2018-02-12T08:52:06.385Z,50.16
2018-02-12T08:53:08.870Z,50.03
2018-02-12T08:54:11.360Z,50.00
2018-02-12T08:55:13.917Z,49.88
2018-02-12T08:56:16.409Z,49.72
2018-02-12T08:57:18.870Z,49.60
2018-02-12T08:58:21.340Z,49.66
2018-02-12T08:59:23.848Z,49.73
2018-02-12T09:00:26.344Z,49.82
2018-02-12T09:01:28.813Z,50.14
2018-02-12T09:02:31.286Z,49.96
2018-02-12T09:03:33.764Z,50.26
2018-02-12T09:04:36.228Z,50.18
2018-02-12T09:05:38.940Z,50.15
2018-02-12T09:06:41.420Z,50.12
2018-02-12T09:07:43.994Z,50.01
2018-02-12T09:08:46.524Z,49.92
2018-02-12T09:09:49.066Z,49.73
2018-02-12T09:10:51.591Z,49.87
2018-02-12T09:11:54.027Z,49.83
2018-02-12T09:12:56.503Z,49.84
2018-02-12T09:13:58.967Z,49.81
2018-02-12T09:15:01.435Z,49.82
2018-02-12T09:16:03.939Z,49.76
2018-02-12T09:17:06.424Z,49.85
2018-02-12T09:18:08.937Z,50.12
2018-02-12T09:19:11.479Z,50.17
2018-02-12T09:20:13.973Z,50.33
2018-02-12T09:21:16.469Z,50.28
2018-02-12T09:22:18.930Z,50.36
2018-02-12T09:23:21.409Z,50.24
2018-02-12T09:24:23.874Z,50.30
2018-02-12T09:25:26.352Z,50.39
2018-02-12T09:26:28.862Z,50.12
2018-02-12T09:27:31.351Z,50.18
2018-02-12T09:28:33.834Z,49.93
2018-02-12T09:29:36.313Z,49.81
2018-02-12T09:30:38.778Z,49.70
2018-02-12T09:31:41.259Z,49.92
2018-02-12T09:32:43.749Z,49.83
2018-02-12T09:33:46.213Z,49.79
2018-02-12T09:34:48.684Z,50.14
2018-02-12T09:35:51.152Z,50.26
2018-02-12T09:36:53.657Z,50.49
2018-02-12T09:37:56.205Z,50.49
2018-02-12T09:38:58.666Z,50.59
2018-02-12T09:40:01.138Z,50.70
2018-02-12T09:41:03.602Z,50.66
2018-02-12T09:42:06.091Z,50.73
2018-02-12T09:43:08.595Z,50.99
2018-02-12T09:44:11.063Z,50.33
2018-02-12T09:45:13.590Z,48.83
2018-02-12T09:46:16.077Z,46.21
2018-02-12T09:47:18.582Z,45.77
2018-02-12T09:48:21.069Z,44.45
2018-02-12T09:49:23.529Z,43.60
2018-02-12T09:50:25.990Z,42.19
2018-02-12T09:51:28.446Z,42.05
2018-02-12T09:52:30.955Z,42.31
2018-02-12T09:53:33.433Z,42.28
2018-02-12T09:54:35.920Z,41.45
2018-02-12T09:55:38.404Z,41.54
2018-02-12T09:56:40.887Z,41.56
2018-02-12T09:57:43.409Z,40.77
2018-02-12T09:58:45.912Z,40.15
2018-02-12T09:59:48.381Z,39.83
2018-02-12T10:00:50.861Z,40.02
2018-02-12T10:01:53.319Z,40.34
2018-02-12T10:02:55.809Z,40.45
2018-02-12T10:03:58.282Z,40.46
2018-02-12T10:05:00.766Z,39.62
2018-02-12T10:06:03.245Z,39.65
2018-02-12T10:07:05.729Z,39.41
2018-02-12T10:08:08.247Z,39.03
2018-02-12T10:09:10.721Z,39.04
2018-02-12T10:10:13.228Z,39.35
2018-02-12T10:11:15.693Z,39.43
2018-02-12T10:12:18.172Z,39.55
2018-02-12T10:13:20.677Z,39.39
2018-02-12T10:14:23.165Z,39.49
2018-02-12T10:15:25.708Z,39.32
2018-02-12T10:16:28.247Z,39.26
2018-02-12T10:17:30.735Z,39.21
2018-02-12T10:18:33.257Z,39.02
2018-02-12T10:19:35.731Z,38.87
2018-02-12T10:20:38.302Z,38.93
2018-02-12T10:21:40.774Z,38.88
2018-02-12T10:22:43.327Z,38.97
2018-02-12T10:23:45.843Z,39.05
2018-02-12T10:24:48.487Z,39.13
2018-02-12T10:25:50.961Z,39.21
2018-02-12T10:26:53.438Z,39.25
2018-02-12T10:27:55.908Z,39.35
2018-02-12T10:28:58.412Z,39.53
2018-02-12T10:30:00.887Z,39.73
2018-02-12T10:31:03.359Z,39.91
2018-02-12T10:32:05.828Z,40.04
2018-02-12T10:33:08.309Z,40.20
2018-02-12T10:34:10.812Z,40.31
2018-02-12T10:35:13.293Z,40.61
2018-02-12T10:36:15.759Z,40.75
2018-02-12T10:37:18.246Z,40.82
2018-02-12T10:38:21.397Z,41.12
2018-02-12T10:39:23.883Z,41.29
2018-02-12T10:40:26.347Z,41.41
2018-02-12T10:41:28.829Z,41.64
2018-02-12T10:42:31.311Z,41.82
2018-02-12T10:43:33.775Z,41.98
2018-02-12T10:44:36.285Z,42.13
2018-02-12T10:45:38.826Z,42.32
2018-02-12T10:46:41.297Z,42.50
2018-02-12T10:47:44.029Z,42.65
2018-02-12T10:48:46.533Z,42.74
2018-02-12T10:49:49.034Z,42.93
2018-02-12T10:50:51.498Z,43.09
2018-02-12T10:51:53.977Z,43.27
2018-02-12T10:52:56.452Z,43.40
2018-02-12T10:53:58.934Z,43.54
2018-02-12T10:55:01.433Z,43.61
2018-02-12T10:56:03.898Z,43.79
2018-02-12T10:57:06.381Z,43.93
2018-02-12T10:58:08.890Z,44.03
2018-02-12T10:59:11.370Z,44.14
2018-02-12T11:00:13.884Z,44.29
2018-02-12T11:01:16.368Z,44.41
2018-02-12T11:02:18.861Z,44.53
2018-02-12T11:03:21.331Z,44.68
2018-02-12T11:04:23.805Z,44.75
2018-02-12T11:05:26.305Z,44.87
2018-02-12T11:06:28.801Z,45.04
2018-02-12T11:07:31.274Z,45.13
2018-02-12T11:08:33.734Z,45.21
2018-02-12T11:09:36.200Z,45.34
2018-02-12T11:10:38.761Z,45.39
2018-02-12T11:11:41.229Z,45.48
2018-02-12T11:12:43.718Z,45.63
2018-02-12T11:13:46.195Z,45.72
2018-02-12T11:14:48.680Z,45.75
2018-02-12T11:15:51.178Z,45.82
2018-02-12T11:16:53.646Z,45.90
2018-02-12T11:17:56.133Z,45.98
2018-02-12T11:18:58.614Z,46.10
2018-02-12T11:20:01.094Z,46.17
2018-02-12T11:21:03.617Z,46.22
2018-02-12T11:22:06.091Z,46.28
2018-02-12T11:23:08.589Z,46.34
2018-02-12T11:24:11.054Z,46.36
2018-02-12T11:25:13.532Z,46.47
2018-02-12T11:26:16.033Z,46.51
2018-02-12T11:27:18.522Z,46.53
2018-02-12T11:28:20.998Z,46.57
2018-02-12T11:29:23.469Z,46.63
2018-02-12T11:30:26.310Z,46.69
2018-02-12T11:31:29.056Z,46.75
2018-02-12T11:32:31.531Z,46.80
2018-02-12T11:33:34.004Z,46.86
2018-02-12T11:34:36.489Z,46.89
2018-02-12T11:35:38.965Z,46.99
2018-02-12T11:36:41.464Z,46.97
2018-02-12T11:37:43.953Z,46.98
2018-02-12T11:38:46.529Z,47.02
2018-02-12T11:39:49.059Z,47.05
2018-02-12T11:40:51.503Z,47.06
2018-02-12T11:41:53.998Z,47.07
2018-02-12T11:42:56.480Z,47.16
2018-02-12T11:43:58.972Z,47.27
2018-02-12T11:45:01.439Z,47.29
2018-02-12T11:46:03.911Z,47.30
2018-02-12T11:47:06.492Z,47.32
2018-02-12T11:48:09.480Z,47.39
2018-02-12T11:49:11.973Z,47.41
2018-02-12T11:50:14.490Z,47.43
2018-02-12T11:51:16.979Z,47.42
2018-02-12T11:52:19.497Z,47.40
2018-02-12T11:53:21.975Z,47.55
2018-02-12T11:54:24.461Z,47.63
2018-02-12T11:55:26.951Z,47.60
2018-02-12T11:56:29.445Z,47.58
2018-02-12T11:57:31.949Z,47.66
2018-02-12T11:58:34.424Z,47.75
2018-02-12T11:59:36.890Z,47.77
2018-02-12T12:00:39.395Z,47.82
2018-02-12T12:01:41.905Z,47.82
2018-02-12T12:02:44.426Z,47.73
2018-02-12T12:03:46.913Z,47.76
2018-02-12T12:04:49.380Z,47.77
2018-02-12T12:05:51.866Z,47.76
2018-02-12T12:06:54.457Z,47.83
2018-02-12T12:07:56.980Z,47.85
2018-02-12T12:08:59.466Z,47.90
2018-02-12T12:10:01.944Z,48.00
2018-02-12T12:11:04.434Z,48.11
2018-02-12T12:12:06.982Z,48.16
2018-02-12T12:13:09.498Z,48.16
2018-02-12T12:14:11.981Z,48.15
2018-02-12T12:15:14.526Z,48.20
2018-02-12T12:16:17.037Z,48.25
2018-02-12T12:17:19.527Z,48.21
2018-02-12T12:18:22.062Z,48.22
2018-02-12T12:19:24.528Z,48.25
2018-02-12T12:20:27.057Z,48.25
2018-02-12T12:21:29.550Z,48.17
2018-02-12T12:22:32.079Z,48.08
2018-02-12T12:23:34.641Z,48.12
2018-02-12T12:24:37.137Z,48.28
2018-02-12T12:25:39.645Z,48.31
2018-02-12T12:26:42.133Z,48.36
2018-02-12T12:27:44.654Z,48.34
2018-02-12T12:28:47.147Z,48.39
2018-02-12T12:29:49.619Z,48.39
2018-02-12T12:30:52.100Z,48.32
2018-02-12T12:31:54.589Z,48.32
2018-02-12T12:32:57.071Z,48.33
2018-02-12T12:33:59.581Z,48.33
2018-02-12T12:35:02.053Z,48.31
2018-02-12T12:36:04.529Z,48.31
2018-02-12T12:37:07.004Z,48.29
2018-02-12T12:38:09.505Z,48.30
2018-02-12T12:39:12.035Z,48.38
2018-02-12T12:40:14.524Z,48.44
2018-02-12T12:41:16.986Z,48.52
2018-02-12T12:42:19.490Z,48.60
2018-02-12T12:43:21.989Z,48.62
2018-02-12T12:44:24.504Z,48.61
2018-02-12T12:45:26.980Z,48.44
2018-02-12T12:46:29.470Z,48.40
2018-02-12T12:47:31.943Z,48.30
2018-02-12T12:48:34.418Z,48.01
2018-02-12T12:49:36.929Z,47.16
2018-02-12T12:50:39.398Z,46.92
2018-02-12T12:51:41.870Z,46.02
2018-02-12T12:52:44.351Z,45.40
2018-02-12T12:53:46.841Z,45.40
2018-02-12T12:54:49.331Z,45.25
2018-02-12T12:55:51.824Z,44.94
2018-02-12T12:56:54.294Z,44.65
2018-02-12T12:57:56.786Z,44.21
2018-02-12T12:58:59.261Z,44.25
2018-02-12T13:00:01.772Z,44.13
2018-02-12T13:01:04.255Z,44.08
2018-02-12T13:02:06.727Z,44.04
2018-02-12T13:03:09.226Z,43.82
2018-02-12T13:04:11.702Z,43.49
2018-02-12T13:05:14.305Z,43.35
2018-02-12T13:06:16.789Z,43.36
2018-02-12T13:07:19.292Z,43.04
2018-02-12T13:08:21.807Z,42.93
2018-02-12T13:09:24.367Z,42.92
2018-02-12T13:10:26.872Z,43.20
2018-02-12T13:11:29.366Z,43.05
2018-02-12T13:12:31.843Z,43.07
2018-02-12T13:13:34.327Z,42.97
2018-02-12T13:14:36.843Z,42.81
2018-02-12T13:15:39.347Z,42.77
2018-02-12T13:16:41.845Z,42.64
2018-02-12T13:17:44.507Z,42.54
2018-02-12T13:18:46.998Z,42.62
2018-02-12T13:19:49.484Z,43.00
2018-02-12T13:20:52.044Z,43.20
2018-02-12T13:21:54.541Z,43.06
2018-02-12T13:22:57.029Z,43.11
2018-02-12T13:23:59.517Z,43.18
2018-02-12T13:25:01.992Z,43.27
2018-02-12T13:26:04.508Z,43.45